Time;durP1;ratioP1;P1;durP2;ratioP2;P2;SDS_P1;SDS_P2;PMS_P1;PMS_P2;Temp;Humidity;BMP_temperature;BMP_pressure;BME280_temperature;BME280_humidity;BME280_pressure;Samples;Min_cycle;Max_cycle;Signal;HPM_P1;HPM_P2
2021/11/08 00:00:39;;;;;;;6.00;3.97;;;14.00;61.10;;;;;;5041815;28;20434;-47
2021/11/08 00:03:10;;;;;;;5.97;3.70;;;14.00;61.20;;;;;;5062416;28;20451;-49
2021/11/08 00:05:39;;;;;;;7.53;4.37;;;14.00;61.10;;;;;;5045357;28;20981;-45
2021/11/08 00:08:05;;;;;;;6.40;4.50;;;14.00;60.90;;;;;;5069261;28;20538;-45
2021/11/08 00:10:36;;;;;;;6.50;4.00;;;14.00;60.90;;;;;;5042419;28;20892;-45
2021/11/08 00:13:05;;;;;;;7.83;4.47;;;14.00;60.60;;;;;;5034968;28;20201;-45
2021/11/08 00:21:01;;;;;;;6.80;4.20;;;14.00;60.40;;;;;;5047938;28;20455;-45
2021/11/08 00:23:28;;;;;;;4.60;3.90;;;14.00;60.30;;;;;;5047398;28;20802;-45
2021/11/08 00:25:56;;;;;;;6.90;5.60;;;14.00;60.20;;;;;;5057445;28;20552;-45
2021/11/08 00:28:21;;;;;;;6.23;4.83;;;14.00;59.90;;;;;;5045399;28;20438;-45
2021/11/08 00:30:49;;;;;;;6.27;4.90;;;14.00;59.80;;;;;;5053315;28;20442;-45
2021/11/08 00:33:17;;;;;;;5.27;4.43;;;13.90;59.70;;;;;;5052536;28;20891;-45
2021/11/08 00:35:44;;;;;;;4.43;4.03;;;13.80;59.60;;;;;;5049907;28;20574;-50
2021/11/08 00:38:10;;;;;;;6.63;3.90;;;13.80;59.70;;;;;;5051103;28;21011;-48
2021/11/08 00:40:37;;;;;;;4.97;4.57;;;13.70;59.80;;;;;;5049022;28;20466;-46
2021/11/08 00:43:03;;;;;;;7.57;3.60;;;13.70;60.00;;;;;;5058721;28;20451;-50
2021/11/08 00:45:29;;;;;;;5.37;4.20;;;13.70;60.20;;;;;;5050716;28;20453;-50
2021/11/08 00:47:56;;;;;;;4.77;4.23;;;13.70;60.30;;;;;;5050235;28;20938;-48
2021/11/08 00:50:22;;;;;;;7.23;4.40;;;13.60;60.40;;;;;;5049498;28;20222;-50
2021/11/08 00:52:48;;;;;;;7.10;4.77;;;13.60;60.60;;;;;;5045527;28;20434;-47
2021/11/08 00:55:15;;;;;;;5.13;4.63;;;13.60;60.80;;;;;;5059828;28;20598;-47
2021/11/08 00:57:44;;;;;;;4.73;4.27;;;13.50;60.70;;;;;;5048646;28;21274;-46
2021/11/08 01:00:12;;;;;;;5.10;4.60;;;13.60;60.80;;;;;;5048935;28;21277;-47
2021/11/08 01:02:39;;;;;;;6.40;5.27;;;13.50;60.70;;;;;;5055556;28;20805;-48
2021/11/08 01:05:07;;;;;;;5.47;4.80;;;13.50;60.90;;;;;;5054201;28;20451;-49
2021/11/08 01:07:33;;;;;;;7.07;5.10;;;13.50;61.20;;;;;;5044143;28;20445;-46
2021/11/08 01:09:59;;;;;;;13.77;5.40;;;13.50;61.10;;;;;;5041769;28;20959;-48
2021/11/08 01:12:25;;;;;;;5.70;5.20;;;13.50;61.20;;;;;;5044935;28;20206;-45
2021/11/08 01:14:53;;;;;;;5.97;5.37;;;13.50;61.10;;;;;;5048252;28;20439;-45
2021/11/08 01:17:20;;;;;;;7.10;5.20;;;13.50;61.20;;;;;;5048551;28;20454;-45
2021/11/08 01:19:46;;;;;;;7.63;5.87;;;13.50;61.40;;;;;;5044728;28;20500;-50
2021/11/08 01:22:20;;;;;;;6.50;5.10;;;13.50;61.30;;;;;;5047875;28;20458;-49
2021/11/08 01:24:55;;;;;;;6.00;4.93;;;13.50;61.20;;;;;;5042908;28;20529;-47
2021/11/08 01:27:38;;;;;;;5.37;4.87;;;13.50;60.90;;;;;;5045686;28;20443;-46
2021/11/08 01:30:13;;;;;;;6.97;4.63;;;13.50;60.60;;;;;;5034771;28;20504;-49
2021/11/08 01:32:40;;;;;;;6.20;5.37;;;13.40;60.20;;;;;;5045590;28;20443;-47
2021/11/08 01:35:07;;;;;;;10.80;5.70;;;13.30;60.10;;;;;;5054160;28;20481;-51
2021/11/08 01:37:33;;;;;;;7.10;5.00;;;13.30;60.40;;;;;;5040907;28;20451;-48
2021/11/08 01:39:59;;;;;;;6.17;5.27;;;13.30;60.50;;;;;;5063066;28;20457;-47
2021/11/08 01:42:25;;;;;;;6.10;4.23;;;13.30;60.60;;;;;;5051081;28;20280;-48
2021/11/08 01:44:50;;;;;;;7.27;4.93;;;13.30;60.50;;;;;;5056366;28;20196;-49
2021/11/08 01:47:16;;;;;;;5.53;4.53;;;13.30;60.30;;;;;;5050647;28;20233;-46
2021/11/08 01:49:42;;;;;;;6.90;5.07;;;13.20;59.90;;;;;;5048986;28;20591;-45
2021/11/08 01:52:11;;;;;;;9.80;5.50;;;13.20;59.90;;;;;;5049005;28;20527;-49
2021/11/08 01:54:38;;;;;;;7.07;5.17;;;13.20;60.00;;;;;;5047112;28;20201;-49
2021/11/08 01:57:05;;;;;;;6.53;4.73;;;13.20;60.50;;;;;;5044025;28;20470;-46
2021/11/08 01:59:32;;;;;;;7.93;6.10;;;13.20;60.70;;;;;;5054189;28;20442;-50
2021/11/08 02:01:59;;;;;;;9.10;5.70;;;13.10;60.70;;;;;;5048709;28;20455;-47
2021/11/08 02:04:26;;;;;;;5.83;5.13;;;13.20;60.70;;;;;;5051632;28;20446;-47
2021/11/08 02:06:52;;;;;;;9.17;4.97;;;13.10;60.40;;;;;;5044532;28;20448;-46
2021/11/08 02:09:19;;;;;;;8.17;5.03;;;13.10;60.40;;;;;;5049371;28;20835;-48
2021/11/08 02:11:46;;;;;;;6.93;5.00;;;13.10;59.90;;;;;;5041030;28;20447;-49
2021/11/08 02:14:12;;;;;;;5.87;4.80;;;13.10;59.80;;;;;;5044690;28;20438;-46
2021/11/08 02:16:38;;;;;;;6.13;4.80;;;13.00;59.70;;;;;;5034786;28;20506;-46
2021/11/08 02:19:05;;;;;;;5.53;4.60;;;13.00;59.40;;;;;;5043261;28;20232;-46
2021/11/08 02:21:31;;;;;;;7.87;5.53;;;12.90;59.10;;;;;;5047882;28;20451;-47
2021/11/08 02:23:57;;;;;;;9.37;5.43;;;12.90;59.10;;;;;;5045295;28;20462;-46
2021/11/08 02:26:23;;;;;;;5.80;5.30;;;12.80;59.00;;;;;;5045451;28;20204;-47
2021/11/08 02:28:52;;;;;;;5.53;5.03;;;12.70;58.90;;;;;;5047020;28;20439;-47
2021/11/08 02:31:21;;;;;;;7.10;5.40;;;12.60;59.00;;;;;;5049123;28;20185;-46
2021/11/08 02:33:51;;;;;;;5.50;4.60;;;12.50;59.00;;;;;;5047644;28;20468;-47
2021/11/08 02:36:16;;;;;;;4.90;4.17;;;12.50;59.10;;;;;;5049070;28;22179;-47
2021/11/08 02:38:47;;;;;;;5.80;5.07;;;12.50;59.20;;;;;;5051459;28;20449;-46
2021/11/08 02:41:14;;;;;;;6.80;4.80;;;12.30;59.20;;;;;;5047502;28;20200;-46
2021/11/08 02:43:40;;;;;;;5.43;4.00;;;12.30;59.30;;;;;;5055079;28;21001;-47
2021/11/08 02:46:16;;;;;;;5.37;4.87;;;12.30;59.30;;;;;;5051981;28;20437;-47
2021/11/08 02:48:44;;;;;;;5.90;4.80;;;12.30;59.20;;;;;;5047454;28;20710;-47
2021/11/08 02:51:30;;;;;;;7.40;5.10;;;12.20;59.10;;;;;;5048781;28;20458;-46
2021/11/08 02:54:01;;;;;;;5.83;4.17;;;12.20;59.30;;;;;;5052486;28;20451;-47
2021/11/08 02:56:28;;;;;;;8.17;3.97;;;12.20;59.40;;;;;;5051729;28;20572;-47
2021/11/08 02:58:54;;;;;;;5.33;4.33;;;12.20;59.40;;;;;;5053529;28;20447;-46
2021/11/08 03:01:23;;;;;;;4.50;3.93;;;12.10;59.40;;;;;;5054309;28;22663;-50
2021/11/08 03:03:57;;;;;;;6.27;4.57;;;12.10;59.40;;;;;;5052625;28;20436;-47
2021/11/08 03:06:41;;;;;;;11.23;4.50;;;12.20;59.70;;;;;;5049547;28;20458;-47
2021/11/08 03:09:18;;;;;;;7.33;5.10;;;12.10;59.80;;;;;;5047917;28;20790;-45
2021/11/08 03:11:44;;;;;;;6.23;4.33;;;12.10;59.90;;;;;;5048063;28;20464;-46
2021/11/08 03:14:14;;;;;;;6.63;4.13;;;12.10;60.00;;;;;;5047587;28;20444;-46
2021/11/08 03:16:44;;;;;;;5.70;4.37;;;12.10;60.00;;;;;;5049155;28;20486;-45
2021/11/08 03:19:52;;;;;;;5.53;4.10;;;12.20;59.90;;;;;;5046822;28;20496;-47
2021/11/08 03:22:01;;;;;;;5.90;4.23;;;12.10;59.50;;;;;;5041825;28;20443;-47
2021/11/08 03:27:04;;;;;;;5.97;4.03;;;12.10;59.50;;;;;;5054114;28;20469;-46
2021/11/08 03:29:30;;;;;;;7.43;4.57;;;12.00;59.50;;;;;;5050723;28;20542;-46
2021/11/08 03:31:57;;;;;;;9.00;4.20;;;12.00;59.50;;;;;;5052877;28;20444;-47
2021/11/08 03:34:23;;;;;;;7.20;4.70;;;12.00;59.40;;;;;;5056526;28;20200;-46
2021/11/08 03:36:50;;;;;;;8.67;4.33;;;11.90;59.30;;;;;;5051398;28;20487;-46
2021/11/08 03:39:17;;;;;;;7.63;4.73;;;11.90;59.30;;;;;;5047077;28;20444;-46
2021/11/08 03:41:43;;;;;;;5.83;4.40;;;11.90;59.40;;;;;;5046130;28;20440;-46
2021/11/08 03:44:09;;;;;;;7.50;5.43;;;11.90;59.40;;;;;;5045857;28;20434;-46
2021/11/08 03:46:34;;;;;;;6.63;4.13;;;11.80;59.40;;;;;;5042680;28;20455;-50
2021/11/08 03:49:00;;;;;;;8.10;4.60;;;11.80;59.50;;;;;;5035959;28;20193;-49
2021/11/08 03:51:26;;;;;;;6.33;3.70;;;11.80;59.50;;;;;;5051230;28;20203;-49
2021/11/08 03:53:52;;;;;;;7.50;4.30;;;11.80;59.40;;;;;;5045082;28;20674;-50
2021/11/08 03:56:17;;;;;;;7.30;4.37;;;11.80;59.40;;;;;;5050344;28;20846;-48
2021/11/08 03:58:43;;;;;;;6.80;4.03;;;11.80;59.50;;;;;;5044986;28;20223;-50
2021/11/08 04:01:09;;;;;;;8.10;4.87;;;11.80;59.40;;;;;;5050491;28;20193;-46
2021/11/08 04:03:35;;;;;;;8.00;4.20;;;11.80;59.20;;;;;;5048277;28;20192;-48
2021/11/08 04:06:02;;;;;;;4.53;3.40;;;11.70;59.00;;;;;;5062528;28;20188;-50
2021/11/08 04:08:27;;;;;;;7.43;4.80;;;11.70;58.70;;;;;;5056295;28;20478;-48
2021/11/08 04:10:55;;;;;;;5.23;3.50;;;11.60;58.50;;;;;;5052198;28;20908;-50
2021/11/08 04:13:29;;;;;;;7.83;3.67;;;11.50;58.70;;;;;;5056370;28;20192;-46
2021/11/08 04:15:57;;;;;;;10.07;4.30;;;11.50;58.80;;;;;;5044104;28;20553;-46
2021/11/08 04:18:25;;;;;;;4.83;4.37;;;11.50;58.80;;;;;;5042461;28;20446;-50
2021/11/08 04:20:53;;;;;;;8.47;4.50;;;11.40;58.70;;;;;;5044570;28;20923;-46
2021/11/08 04:23:21;;;;;;;7.60;4.63;;;11.30;59.00;;;;;;5044951;28;20443;-47
2021/11/08 04:25:47;;;;;;;9.93;4.97;;;11.30;59.50;;;;;;5049131;28;20435;-49
2021/11/08 04:28:13;;;;;;;8.53;6.00;;;11.10;59.90;;;;;;5048054;28;20466;-46
2021/11/08 04:30:42;;;;;;;9.23;4.07;;;11.00;60.10;;;;;;5044936;28;20539;-49
2021/11/08 04:36:31;;;;;;;16.70;6.43;;;11.00;60.00;;;;;;5041618;28;20518;-46
2021/11/08 04:44:21;;;;;;;11.33;5.50;;;11.10;59.70;;;;;;5052805;28;20927;-47
2021/11/08 04:49:25;;;;;;;9.90;5.40;;;11.10;59.90;;;;;;5033102;28;20444;-47
2021/11/08 04:52:19;;;;;;;10.33;5.10;;;11.10;60.00;;;;;;5041287;28;20559;-50
2021/11/08 04:54:55;;;;;;;10.67;5.00;;;11.20;60.10;;;;;;5047737;28;20445;-47
2021/11/08 04:58:03;;;;;;;4.97;4.33;;;11.20;59.80;;;;;;5043792;28;20462;-46
2021/11/08 05:30:16;;;;;;;9.43;6.03;;;11.00;60.50;;;;;;5050866;28;20680;-46
2021/11/08 05:32:46;;;;;;;9.20;5.20;;;11.00;60.40;;;;;;5052608;28;21424;-49
2021/11/08 05:35:14;;;;;;;6.83;4.87;;;11.00;60.40;;;;;;5057949;28;20215;-47
2021/11/08 05:37:44;;;;;;;4.70;4.10;;;11.10;60.40;;;;;;5053933;28;20442;-46
2021/11/08 05:40:15;;;;;;;6.43;5.70;;;11.10;60.40;;;;;;5049141;28;20450;-46
2021/11/08 05:42:41;;;;;;;6.73;5.83;;;11.10;60.20;;;;;;5064008;28;20481;-46
2021/11/08 05:45:10;;;;;;;9.40;5.00;;;11.00;60.20;;;;;;5038174;28;20431;-47
2021/11/08 05:47:37;;;;;;;7.10;5.37;;;11.10;60.30;;;;;;5050375;28;20438;-46
2021/11/08 05:50:04;;;;;;;8.37;5.73;;;11.10;60.30;;;;;;5057154;28;20479;-45
2021/11/08 05:52:30;;;;;;;6.97;6.27;;;11.10;60.20;;;;;;5060390;28;20446;-45
2021/11/08 05:54:55;;;;;;;7.40;5.93;;;11.10;60.10;;;;;;5040803;28;20795;-46
2021/11/08 06:49:37;;;;;;;5.23;3.80;;;12.70;57.80;;;;;;5050117;28;20444;-50
2021/11/08 06:52:04;;;;;;;5.03;4.53;;;12.90;57.50;;;;;;5053647;28;20452;-50
2021/11/08 06:54:30;;;;;;;4.27;3.60;;;13.00;57.40;;;;;;5047430;28;20449;-51
2021/11/08 06:57:05;;;;;;;6.57;5.00;;;13.20;56.90;;;;;;5048391;28;20558;-46
2021/11/08 06:59:31;;;;;;;6.47;3.87;;;13.50;56.30;;;;;;5043079;28;20435;-51
2021/11/08 07:01:57;;;;;;;8.43;4.60;;;13.60;55.30;;;;;;5073765;28;20473;-49
2021/11/08 07:04:25;;;;;;;7.03;4.40;;;13.60;54.90;;;;;;5057737;28;20202;-49
2021/11/08 07:06:51;;;;;;;6.10;4.27;;;13.50;54.80;;;;;;5047628;28;20867;-48
2021/11/08 07:09:17;;;;;;;7.27;4.10;;;13.50;55.50;;;;;;5051655;28;20993;-48
2021/11/08 07:11:43;;;;;;;4.13;3.73;;;13.60;56.60;;;;;;5055915;28;20458;-48
2021/11/08 07:14:10;;;;;;;5.03;4.10;;;13.80;56.00;;;;;;5043225;28;20490;-50
2021/11/08 07:16:38;;;;;;;8.03;5.60;;;14.00;55.70;;;;;;5046714;28;21050;-50
2021/11/08 07:19:04;;;;;;;5.93;5.43;;;14.30;55.20;;;;;;5048698;28;20485;-50
2021/11/08 07:21:30;;;;;;;5.70;5.17;;;14.60;53.80;;;;;;5050473;28;20975;-49
2021/11/08 07:23:56;;;;;;;8.47;6.40;;;14.80;52.90;;;;;;5053124;28;20436;-49
2021/11/08 07:26:22;;;;;;;8.43;5.60;;;15.00;52.10;;;;;;5050275;28;20272;-50
2021/11/08 07:28:48;;;;;;;7.80;5.33;;;15.00;51.40;;;;;;5047229;28;20529;-50
2021/11/08 07:31:14;;;;;;;11.30;5.80;;;15.20;51.20;;;;;;5049773;28;20746;-46
2021/11/08 07:33:40;;;;;;;5.50;4.90;;;15.30;50.80;;;;;;5050764;28;20443;-51
2021/11/08 07:36:06;;;;;;;8.03;6.17;;;15.40;50.60;;;;;;5058765;28;20499;-49
2021/11/08 07:38:33;;;;;;;7.90;5.60;;;15.50;51.10;;;;;;5054224;28;20227;-49
2021/11/08 07:41:00;;;;;;;8.10;6.10;;;15.50;50.40;;;;;;5052747;28;20485;-46
2021/11/08 07:43:26;;;;;;;9.30;6.70;;;15.60;50.20;;;;;;5051033;28;20457;-51
2021/11/08 07:45:51;;;;;;;7.97;5.30;;;15.60;50.00;;;;;;5043719;28;20951;-48
2021/11/08 07:48:17;;;;;;;10.00;5.53;;;15.50;50.00;;;;;;5041780;28;20521;-47
2021/11/08 07:50:43;;;;;;;8.50;5.60;;;15.50;50.30;;;;;;5046894;28;20637;-50
2021/11/08 07:53:09;;;;;;;10.83;5.40;;;15.60;50.60;;;;;;5062966;28;20204;-50
2021/11/08 07:55:36;;;;;;;10.33;6.03;;;15.60;50.90;;;;;;5044495;28;20241;-46
2021/11/08 07:58:04;;;;;;;8.67;5.53;;;15.50;51.00;;;;;;5054210;28;20442;-50
2021/11/08 08:00:32;;;;;;;9.10;5.00;;;15.50;51.40;;;;;;5057766;28;20458;-46
2021/11/08 08:02:58;;;;;;;8.10;5.10;;;15.40;51.60;;;;;;5050375;28;20458;-46
2021/11/08 08:05:24;;;;;;;8.20;4.50;;;15.30;51.80;;;;;;5049236;28;20439;-47
2021/11/08 08:07:50;;;;;;;6.30;4.83;;;15.00;52.40;;;;;;5054000;28;20449;-46
2021/11/08 08:10:15;;;;;;;6.13;4.93;;;15.00;53.20;;;;;;5046813;28;20439;-46
2021/11/08 08:12:41;;;;;;;8.47;4.73;;;14.90;53.50;;;;;;5050294;28;20200;-46
2021/11/08 08:15:08;;;;;;;5.60;4.57;;;14.90;53.30;;;;;;5050202;28;20192;-46
2021/11/08 08:17:36;;;;;;;7.60;5.53;;;14.90;53.50;;;;;;5053443;28;20454;-48
2021/11/08 08:20:08;;;;;;;8.00;5.47;;;14.90;53.80;;;;;;5051116;28;20475;-46
2021/11/08 08:22:33;;;;;;;9.20;6.00;;;14.90;54.20;;;;;;5050342;28;20430;-46
2021/11/08 08:24:59;;;;;;;9.87;4.80;;;14.90;54.10;;;;;;5048712;28;20523;-46
2021/11/08 08:27:24;;;;;;;7.83;5.30;;;14.90;54.20;;;;;;5048231;28;20197;-46
2021/11/08 08:29:51;;;;;;;8.53;5.50;;;14.90;54.70;;;;;;5051859;28;20193;-47
2021/11/08 08:32:18;;;;;;;6.27;5.10;;;14.90;55.50;;;;;;5047429;28;20235;-46
2021/11/08 08:34:44;;;;;;;6.70;4.80;;;14.90;55.70;;;;;;5045940;28;20865;-47
2021/11/08 08:37:10;;;;;;;8.07;5.57;;;15.00;55.90;;;;;;5044565;28;20491;-48
2021/11/08 08:39:35;;;;;;;9.50;5.90;;;15.00;55.70;;;;;;5047312;28;20454;-46
2021/11/08 08:42:01;;;;;;;10.40;4.90;;;15.10;55.60;;;;;;5066402;28;20196;-47
2021/11/08 08:44:28;;;;;;;7.27;5.57;;;15.20;55.40;;;;;;5054859;28;20216;-46
2021/11/08 08:46:53;;;;;;;8.47;5.60;;;15.20;55.50;;;;;;5052055;28;20971;-47
2021/11/08 08:49:19;;;;;;;8.63;5.93;;;15.20;55.60;;;;;;5054890;28;20542;-48
2021/11/08 08:51:45;;;;;;;12.20;5.37;;;15.30;55.80;;;;;;5048677;28;20192;-49
2021/11/08 08:54:12;;;;;;;8.40;5.73;;;15.30;55.80;;;;;;5049236;28;20311;-47
2021/11/08 08:56:38;;;;;;;10.53;5.27;;;15.40;55.80;;;;;;5045897;28;20478;-47
2021/11/08 08:59:04;;;;;;;12.33;6.80;;;15.40;55.30;;;;;;5048573;28;20441;-45
2021/11/08 09:01:30;;;;;;;8.27;5.87;;;15.50;55.40;;;;;;5044527;28;20514;-46
2021/11/08 09:03:56;;;;;;;8.73;6.87;;;15.60;55.60;;;;;;5050883;28;20522;-50
2021/11/08 09:06:23;;;;;;;10.03;6.87;;;15.70;55.80;;;;;;5044117;28;20243;-50
2021/11/08 09:08:50;;;;;;;10.30;5.53;;;15.90;56.10;;;;;;5053679;28;20449;-50
2021/11/08 09:11:16;;;;;;;11.30;6.83;;;16.10;55.50;;;;;;5048936;28;20427;-50
2021/11/08 09:13:43;;;;;;;9.00;7.27;;;16.20;54.60;;;;;;5048647;28;20427;-50
2021/11/08 09:16:12;;;;;;;9.03;6.57;;;16.40;54.50;;;;;;5048786;28;20478;-50
2021/11/08 09:18:53;;;;;;;9.30;6.33;;;16.50;54.30;;;;;;5046480;28;20462;-48
2021/11/08 09:21:20;;;;;;;9.93;7.23;;;16.70;53.90;;;;;;5051796;28;20496;-50
2021/11/08 09:23:47;;;;;;;12.93;6.60;;;16.70;52.60;;;;;;5046082;28;20478;-49
2021/11/08 09:26:13;;;;;;;7.43;4.33;;;17.00;52.70;;;;;;5039822;28;20462;-47
2021/11/08 09:28:39;;;;;;;7.03;5.27;;;17.20;52.10;;;;;;5047474;28;20431;-51
2021/11/08 09:31:06;;;;;;;9.93;5.60;;;17.30;51.40;;;;;;5057332;28;20900;-51
2021/11/08 09:33:33;;;;;;;17.33;6.33;;;17.50;51.40;;;;;;5050099;28;20455;-50
2021/11/08 09:36:03;;;;;;;11.20;6.27;;;17.50;51.20;;;;;;5045342;28;20582;-47
2021/11/08 09:38:30;;;;;;;12.53;6.23;;;17.30;50.80;;;;;;5048514;28;20435;-50
2021/11/08 09:40:55;;;;;;;10.80;6.67;;;17.10;51.50;;;;;;5045976;28;20438;-49
2021/11/08 09:43:23;;;;;;;12.50;7.40;;;17.10;51.60;;;;;;5048056;28;21005;-50
2021/11/08 09:45:50;;;;;;;11.80;7.20;;;17.00;51.90;;;;;;5042514;28;20622;-48
2021/11/08 09:48:20;;;;;;;13.00;7.13;;;16.90;52.50;;;;;;5051707;28;20434;-50
2021/11/08 09:50:47;;;;;;;12.00;7.30;;;16.90;52.30;;;;;;5045744;28;20529;-51
2021/11/08 09:53:15;;;;;;;13.43;7.77;;;16.90;52.20;;;;;;5050934;28;20431;-51
2021/11/08 09:55:43;;;;;;;10.83;8.07;;;16.70;52.10;;;;;;5050889;28;20581;-51
2021/11/08 09:58:09;;;;;;;10.90;6.70;;;16.60;52.30;;;;;;5044044;28;20436;-46
2021/11/08 10:00:37;;;;;;;9.90;6.83;;;16.60;52.60;;;;;;5043171;28;20941;-46
2021/11/08 10:03:05;;;;;;;11.30;7.10;;;16.60;52.70;;;;;;5040242;28;20449;-46
2021/11/08 10:05:36;;;;;;;15.07;7.03;;;16.60;52.40;;;;;;5051303;28;20851;-52
2021/11/08 10:08:02;;;;;;;13.63;7.40;;;16.60;52.50;;;;;;5051356;28;20435;-52
2021/11/08 10:10:29;;;;;;;12.60;7.27;;;16.50;53.20;;;;;;5045612;28;20439;-51
2021/11/08 10:13:11;;;;;;;10.53;7.20;;;16.50;53.30;;;;;;5039055;28;20494;-49
2021/11/08 10:15:40;;;;;;;13.67;7.60;;;16.60;53.30;;;;;;5039023;28;20480;-51
2021/11/08 10:18:06;;;;;;;17.77;7.23;;;16.70;53.10;;;;;;5040714;28;20432;-49
2021/11/08 10:20:34;;;;;;;14.93;6.60;;;16.70;53.00;;;;;;5041547;28;20498;-51
2021/11/08 10:23:01;;;;;;;8.60;6.20;;;16.80;52.70;;;;;;5043520;28;20581;-50
2021/11/08 10:25:28;;;;;;;14.57;7.40;;;16.70;52.10;;;;;;5042220;28;20439;-51
2021/11/08 10:27:54;;;;;;;10.20;6.60;;;16.80;52.00;;;;;;5042857;28;20507;-50
2021/11/08 10:30:32;;;;;;;14.53;7.53;;;16.90;52.80;;;;;;5043803;28;20651;-51
2021/11/08 10:33:32;;;;;;;13.63;7.17;;;16.80;52.50;;;;;;5041495;28;20521;-51
2021/11/08 10:36:12;;;;;;;12.43;7.00;;;16.70;53.00;;;;;;5039711;28;20499;-49
2021/11/08 10:38:40;;;;;;;15.17;6.03;;;16.70;53.20;;;;;;5041759;28;20434;-50
2021/11/08 10:41:18;;;;;;;14.77;6.80;;;16.70;53.20;;;;;;5042341;28;20966;-50
2021/11/08 10:43:47;;;;;;;10.73;6.77;;;16.70;52.70;;;;;;5042725;28;20439;-49
2021/11/08 10:46:25;;;;;;;9.10;6.37;;;16.80;52.70;;;;;;5041194;28;20821;-46
2021/11/08 10:48:54;;;;;;;16.17;6.20;;;16.60;52.50;;;;;;5048675;28;20450;-47
2021/11/08 10:51:22;;;;;;;11.30;6.33;;;16.70;52.60;;;;;;5035072;28;20562;-48
2021/11/08 10:53:54;;;;;;;8.67;5.70;;;16.70;52.70;;;;;;5047062;28;20438;-50
2021/11/08 10:56:26;;;;;;;9.93;5.20;;;16.80;53.00;;;;;;5043384;28;20482;-50
2021/11/08 10:58:53;;;;;;;6.60;4.83;;;16.90;51.40;;;;;;5032781;28;20467;-48
2021/11/08 11:01:29;;;;;;;9.33;4.47;;;16.80;51.40;;;;;;5047392;28;21019;-49
2021/11/08 11:03:56;;;;;;;11.60;4.30;;;16.80;51.00;;;;;;5051641;28;20447;-47
2021/11/08 11:06:40;;;;;;;6.93;3.77;;;17.00;50.60;;;;;;5044256;28;20477;-49
2021/11/08 11:09:16;;;;;;;8.53;3.83;;;17.20;48.30;;;;;;5040258;28;20427;-48
2021/11/08 11:11:42;;;;;;;11.27;4.50;;;17.20;48.00;;;;;;5048822;28;20443;-50
2021/11/08 11:14:08;;;;;;;10.00;4.73;;;17.20;48.40;;;;;;5048692;28;20537;-48
2021/11/08 11:16:46;;;;;;;9.20;4.20;;;17.10;49.10;;;;;;5045709;28;20953;-49
2021/11/08 11:19:14;;;;;;;7.43;4.13;;;17.10;48.00;;;;;;5046333;28;20236;-49
2021/11/08 11:21:55;;;;;;;10.03;4.50;;;17.10;49.00;;;;;;5046329;28;20458;-49
2021/11/08 11:24:41;;;;;;;9.80;3.97;;;17.10;49.40;;;;;;5041385;28;20446;-49
2021/11/08 11:27:10;;;;;;;11.10;3.80;;;17.10;49.00;;;;;;5046097;28;20518;-49
2021/11/08 11:29:35;;;;;;;11.47;3.97;;;17.10;49.00;;;;;;5040978;28;20484;-46
2021/11/08 11:32:01;;;;;;;9.33;3.83;;;17.30;48.70;;;;;;5051601;28;20427;-50
2021/11/08 11:34:28;;;;;;;11.10;3.93;;;17.30;48.30;;;;;;5044638;28;20196;-48
2021/11/08 11:36:54;;;;;;;11.40;3.67;;;17.30;48.80;;;;;;5045847;28;20698;-48
2021/11/08 11:39:20;;;;;;;10.20;4.00;;;17.20;47.10;;;;;;5045627;28;20427;-46
2021/11/08 11:41:48;;;;;;;11.60;3.70;;;17.40;47.80;;;;;;5049902;28;20639;-50
2021/11/08 11:44:25;;;;;;;10.90;4.90;;;17.50;47.20;;;;;;5046047;28;20442;-48
2021/11/08 11:46:54;;;;;;;10.60;4.40;;;17.50;46.60;;;;;;5048295;28;20990;-48
2021/11/08 11:49:20;;;;;;;7.93;4.67;;;17.50;46.80;;;;;;5048942;28;20486;-49
2021/11/08 11:51:50;;;;;;;8.20;3.23;;;17.60;47.00;;;;;;5046463;28;20432;-47
2021/11/08 11:54:20;;;;;;;13.57;4.80;;;17.70;47.10;;;;;;5045752;28;21414;-49
2021/11/08 11:56:48;;;;;;;7.53;3.87;;;17.40;46.80;;;;;;5058712;28;20501;-48
2021/11/08 11:59:16;;;;;;;9.10;4.40;;;17.40;47.90;;;;;;5047171;28;20446;-48
2021/11/08 12:01:44;;;;;;;11.60;3.90;;;17.50;47.40;;;;;;5045966;28;20439;-48
2021/11/08 12:04:11;;;;;;;10.33;3.83;;;17.60;47.00;;;;;;5045398;28;20943;-46
2021/11/08 12:06:43;;;;;;;7.23;3.80;;;17.80;46.80;;;;;;5048916;28;20424;-50
2021/11/08 12:09:15;;;;;;;15.50;4.60;;;17.70;46.70;;;;;;5049739;28;20515;-49
2021/11/08 12:11:45;;;;;;;7.43;4.63;;;17.70;46.10;;;;;;5048196;28;20476;-47
2021/11/08 12:14:14;;;;;;;14.27;4.57;;;18.00;45.60;;;;;;5046507;28;20427;-50
2021/11/08 12:16:54;;;;;;;9.03;3.83;;;18.10;46.50;;;;;;5045324;28;20491;-48
2021/11/08 12:19:25;;;;;;;10.47;3.50;;;18.20;45.40;;;;;;5049658;28;20474;-48
2021/11/08 12:21:52;;;;;;;8.90;2.93;;;18.30;45.20;;;;;;5055696;28;20430;-47
2021/11/08 12:24:31;;;;;;;10.00;3.50;;;18.30;45.00;;;;;;5056638;28;20810;-50
2021/11/08 12:27:08;;;;;;;7.83;2.83;;;18.30;45.50;;;;;;5042256;28;20438;-47
2021/11/08 12:29:44;;;;;;;12.30;3.50;;;18.10;44.90;;;;;;5060854;28;20430;-46
2021/11/08 12:32:11;;;;;;;8.70;3.30;;;18.00;48.80;;;;;;5039002;28;20488;-46
2021/11/08 12:34:46;;;;;;;11.37;2.70;;;18.20;49.40;;;;;;5049896;28;20431;-46
2021/11/08 12:37:13;;;;;;;9.20;3.50;;;18.70;47.80;;;;;;5038379;28;20570;-46
2021/11/08 12:39:41;;;;;;;6.60;3.27;;;19.20;45.70;;;;;;5037867;28;20428;-47
2021/11/08 12:42:09;;;;;;;9.23;3.13;;;19.40;43.50;;;;;;5034978;28;20439;-47
2021/11/08 12:44:40;;;;;;;6.13;2.93;;;19.50;44.10;;;;;;5040380;28;20439;-45
2021/11/08 12:47:09;;;;;;;6.80;2.50;;;19.70;43.60;;;;;;5047168;28;20491;-48
2021/11/08 12:49:40;;;;;;;8.33;3.00;;;19.80;44.20;;;;;;5049245;28;20439;-48
2021/11/08 12:52:06;;;;;;;7.43;3.50;;;19.80;42.90;;;;;;5053059;28;20435;-48
2021/11/08 12:55:02;;;;;;;9.00;3.10;;;19.80;42.70;;;;;;5046793;28;20488;-50
2021/11/08 12:57:29;;;;;;;7.80;3.10;;;19.80;42.90;;;;;;5044324;28;20266;-47
2021/11/08 12:59:59;;;;;;;6.00;2.83;;;19.80;43.60;;;;;;5038074;28;20452;-46
2021/11/08 13:02:39;;;;;;;8.30;3.00;;;19.90;44.10;;;;;;5046695;28;20451;-47
2021/11/08 13:05:12;;;;;;;5.37;3.13;;;20.00;45.10;;;;;;5038019;28;20811;-46
2021/11/08 13:07:40;;;;;;;8.97;3.93;;;20.00;42.90;;;;;;5045651;28;20463;-48
2021/11/08 13:10:31;;;;;;;7.10;3.33;;;20.00;41.70;;;;;;5047923;28;20488;-47
2021/11/08 13:12:57;;;;;;;12.90;3.33;;;19.80;41.90;;;;;;5052608;28;20439;-49
2021/11/08 13:15:29;;;;;;;7.00;3.70;;;19.70;42.40;;;;;;5049305;28;20436;-48
2021/11/08 13:17:58;;;;;;;13.03;3.27;;;19.60;43.00;;;;;;5050015;28;20441;-49
2021/11/08 13:20:33;;;;;;;8.67;3.43;;;19.60;42.90;;;;;;5046156;28;20478;-49
2021/11/08 13:23:10;;;;;;;7.73;3.53;;;19.60;43.00;;;;;;5050791;28;20431;-48
2021/11/08 13:25:40;;;;;;;9.17;3.80;;;19.60;42.70;;;;;;5046339;28;20450;-49
2021/11/08 13:28:09;;;;;;;5.07;3.00;;;19.40;42.80;;;;;;5052753;28;20758;-48
2021/11/08 13:31:08;;;;;;;6.73;3.70;;;19.40;44.10;;;;;;5049821;28;20466;-49
2021/11/08 13:33:43;;;;;;;7.10;3.10;;;19.50;44.60;;;;;;5030909;28;20489;-47
2021/11/08 13:36:14;;;;;;;6.20;3.53;;;19.60;46.00;;;;;;5067319;28;20960;-48
2021/11/08 13:39:00;;;;;;;5.53;2.83;;;19.70;45.50;;;;;;5066033;28;20426;-48
2021/11/08 13:41:32;;;;;;;9.47;3.23;;;19.80;44.40;;;;;;5053645;28;20435;-48
2021/11/08 13:44:08;;;;;;;8.93;3.03;;;19.70;42.50;;;;;;5053776;28;20829;-49
2021/11/08 13:46:38;;;;;;;7.40;3.40;;;19.60;42.90;;;;;;5052300;28;20464;-45
2021/11/08 13:49:13;;;;;;;6.07;3.43;;;19.50;42.70;;;;;;5057664;28;20438;-45
2021/11/08 13:51:49;;;;;;;8.23;3.43;;;19.50;42.90;;;;;;5049908;28;20438;-49
2021/11/08 13:54:33;;;;;;;8.00;3.07;;;19.40;43.20;;;;;;5053013;28;20438;-47
2021/11/08 13:57:00;;;;;;;6.87;4.30;;;19.40;45.00;;;;;;5051272;28;20488;-48
2021/11/08 13:59:29;;;;;;;4.90;2.53;;;19.50;44.20;;;;;;5049637;28;20438;-49
2021/11/08 14:01:57;;;;;;;4.83;2.83;;;19.60;44.90;;;;;;5051818;28;20442;-45
2021/11/08 14:04:38;;;;;;;7.57;3.93;;;19.60;45.10;;;;;;5051227;28;20441;-46
2021/11/08 14:07:07;;;;;;;7.53;2.90;;;19.70;45.00;;;;;;5049837;28;20800;-48
2021/11/08 14:09:34;;;;;;;6.73;3.47;;;19.70;43.40;;;;;;5047044;28;20426;-47
2021/11/08 14:12:03;;;;;;;11.80;4.17;;;19.80;44.30;;;;;;5052725;28;20435;-47
2021/11/08 14:14:31;;;;;;;9.00;3.90;;;19.80;43.70;;;;;;5048381;28;20953;-48
2021/11/08 14:17:10;;;;;;;6.43;3.77;;;19.70;41.90;;;;;;5052625;28;20504;-45
2021/11/08 14:19:37;;;;;;;9.80;4.03;;;19.60;42.20;;;;;;5053421;28;20549;-48
2021/11/08 14:22:02;;;;;;;9.17;4.00;;;19.50;44.40;;;;;;5051414;28;20485;-49
2021/11/08 14:24:32;;;;;;;8.53;4.13;;;19.50;44.50;;;;;;5050932;28;20423;-45
2021/11/08 14:27:00;;;;;;;5.73;3.10;;;19.60;44.20;;;;;;5052751;28;20216;-47
2021/11/08 14:29:31;;;;;;;9.90;4.73;;;19.60;44.10;;;;;;5050755;28;20431;-45
2021/11/08 14:32:09;;;;;;;15.00;4.40;;;19.70;44.30;;;;;;5049379;28;20431;-48
2021/11/08 14:34:40;;;;;;;6.53;3.67;;;19.70;43.70;;;;;;5053097;28;20441;-48
2021/11/08 14:37:19;;;;;;;10.20;4.10;;;19.70;44.20;;;;;;5052432;28;20574;-48